sensor_id;sensor_type;location;lat;lon;timestamp;P1;P2;P0
48893;PMS5003;34710;35.798;139.446;2022-11-20T00:01:28;40;32;
48893;PMS5003;34710;35.798;139.446;2022-11-20T00:03:57;34;29;
48893;PMS5003;34710;35.798;139.446;2022-11-20T00:06:27;50;35;
48893;PMS5003;34710;35.798;139.446;2022-11-20T00:08:57;40;29;
48893;PMS5003;34710;35.798;139.446;2022-11-20T00:11:28;38;32;
48893;PMS5003;34710;35.798;139.446;2022-11-20T00:13:59;38;32;
48893;PMS5003;34710;35.798;139.446;2022-11-20T00:16:30;50;32;
48893;PMS5003;34710;35.798;139.446;2022-11-20T00:19:01;42;31;
48893;PMS5003;34710;35.798;139.446;2022-11-20T00:21:30;31;29;
48893;PMS5003;34710;35.798;139.446;2022-11-20T00:23:59;38;26;
48893;PMS5003;34710;35.798;139.446;2022-11-20T00:26:28;35;25;
48893;PMS5003;34710;35.798;139.446;2022-11-20T00:28:58;28;27;
48893;PMS5003;34710;35.798;139.446;2022-11-20T00:31:28;38;26;
48893;PMS5003;34710;35.798;139.446;2022-11-20T00:33:58;33;26;
48893;PMS5003;34710;35.798;139.446;2022-11-20T00:36:28;33;29;
48893;PMS5003;34710;35.798;139.446;2022-11-20T00:38:59;29;29;
48893;PMS5003;34710;35.798;139.446;2022-11-20T00:41:29;41;30;
48893;PMS5003;34710;35.798;139.446;2022-11-20T00:43:58;33;30;
48893;PMS5003;34710;35.798;139.446;2022-11-20T00:46:28;44;30;
48893;PMS5003;34710;35.798;139.446;2022-11-20T00:48:57;48;32;
48893;PMS5003;34710;35.798;139.446;2022-11-20T00:51:26;43;31;
48893;PMS5003;34710;35.798;139.446;2022-11-20T00:53:56;48;36;
48893;PMS5003;34710;35.798;139.446;2022-11-20T00:56:25;40;35;
48893;PMS5003;34710;35.798;139.446;2022-11-20T00:58:55;51;36;
48893;PMS5003;34710;35.798;139.446;2022-11-20T01:01:27;40;36;
48893;PMS5003;34710;35.798;139.446;2022-11-20T01:03:57;44;34;
48893;PMS5003;34710;35.798;139.446;2022-11-20T01:06:28;48;34;
48893;PMS5003;34710;35.798;139.446;2022-11-20T01:08:58;40;35;
48893;PMS5003;34710;35.798;139.446;2022-11-20T01:11:30;36;33;
48893;PMS5003;34710;35.798;139.446;2022-11-20T01:14:01;51;34;
48893;PMS5003;34710;35.798;139.446;2022-11-20T01:16:32;49;34;
48893;PMS5003;34710;35.798;139.446;2022-11-20T01:19:04;35;30;
48893;PMS5003;34710;35.798;139.446;2022-11-20T01:21:37;39;34;
48893;PMS5003;34710;35.798;139.446;2022-11-20T01:24:11;40;33;
48893;PMS5003;34710;35.798;139.446;2022-11-20T01:26:42;37;33;
48893;PMS5003;34710;35.798;139.446;2022-11-20T01:29:13;37;28;
48893;PMS5003;34710;35.798;139.446;2022-11-20T01:31:44;37;31;
48893;PMS5003;34710;35.798;139.446;2022-11-20T01:34:15;40;32;
48893;PMS5003;34710;35.798;139.446;2022-11-20T01:36:46;40;35;
48893;PMS5003;34710;35.798;139.446;2022-11-20T01:39:16;39;34;
48893;PMS5003;34710;35.798;139.446;2022-11-20T01:41:48;49;34;
48893;PMS5003;34710;35.798;139.446;2022-11-20T01:44:19;42;35;
48893;PMS5003;34710;35.798;139.446;2022-11-20T01:46:52;41;35;
48893;PMS5003;34710;35.798;139.446;2022-11-20T01:49:26;40;32;
48893;PMS5003;34710;35.798;139.446;2022-11-20T01:52:02;31;30;
48893;PMS5003;34710;35.798;139.446;2022-11-20T01:54:38;45;34;
48893;PMS5003;34710;35.798;139.446;2022-11-20T01:57:11;49;37;
48893;PMS5003;34710;35.798;139.446;2022-11-20T01:59:43;49;33;
48893;PMS5003;34710;35.798;139.446;2022-11-20T02:02:17;41;30;
48893;PMS5003;34710;35.798;139.446;2022-11-20T02:04:46;40;32;
48893;PMS5003;34710;35.798;139.446;2022-11-20T02:07:17;34;30;
48893;PMS5003;34710;35.798;139.446;2022-11-20T02:09:47;43;32;
48893;PMS5003;34710;35.798;139.446;2022-11-20T02:12:16;37;28;
48893;PMS5003;34710;35.798;139.446;2022-11-20T02:14:46;33;32;
48893;PMS5003;34710;35.798;139.446;2022-11-20T02:17:15;33;30;
48893;PMS5003;34710;35.798;139.446;2022-11-20T02:19:44;35;29;
48893;PMS5003;34710;35.798;139.446;2022-11-20T02:22:14;55;37;
48893;PMS5003;34710;35.798;139.446;2022-11-20T02:24:49;56;37;
48893;PMS5003;34710;35.798;139.446;2022-11-20T02:27:19;46;34;
48893;PMS5003;34710;35.798;139.446;2022-11-20T02:29:50;42;33;
48893;PMS5003;34710;35.798;139.446;2022-11-20T02:32:23;32;30;
48893;PMS5003;34710;35.798;139.446;2022-11-20T02:34:54;31;28;
48893;PMS5003;34710;35.798;139.446;2022-11-20T02:37:24;46;30;
48893;PMS5003;34710;35.798;139.446;2022-11-20T02:39:59;40;32;
48893;PMS5003;34710;35.798;139.446;2022-11-20T02:42:28;44;33;
48893;PMS5003;34710;35.798;139.446;2022-11-20T02:44:57;38;32;
48893;PMS5003;34710;35.798;139.446;2022-11-20T02:47:26;41;33;
48893;PMS5003;34710;35.798;139.446;2022-11-20T02:49:55;37;34;
48893;PMS5003;34710;35.798;139.446;2022-11-20T02:52:25;45;32;
48893;PMS5003;34710;35.798;139.446;2022-11-20T02:54:54;40;33;
48893;PMS5003;34710;35.798;139.446;2022-11-20T02:57:23;41;33;
48893;PMS5003;34710;35.798;139.446;2022-11-20T02:59:52;41;29;
48893;PMS5003;34710;35.798;139.446;2022-11-20T03:02:22;41;31;
48893;PMS5003;34710;35.798;139.446;2022-11-20T03:04:52;36;31;
48893;PMS5003;34710;35.798;139.446;2022-11-20T03:07:20;37;31;
48893;PMS5003;34710;35.798;139.446;2022-11-20T03:09:49;34;30;
48893;PMS5003;34710;35.798;139.446;2022-11-20T03:12:19;32;25;
48893;PMS5003;34710;35.798;139.446;2022-11-20T03:14:48;44;28;
48893;PMS5003;34710;35.798;139.446;2022-11-20T03:17:17;25;22;
48893;PMS5003;34710;35.798;139.446;2022-11-20T03:19:47;32;28;
48893;PMS5003;34710;35.798;139.446;2022-11-20T03:22:16;36;26;
48893;PMS5003;34710;35.798;139.446;2022-11-20T03:24:46;29;24;
48893;PMS5003;34710;35.798;139.446;2022-11-20T03:27:15;33;25;
48893;PMS5003;34710;35.798;139.446;2022-11-20T03:29:44;37;22;
48893;PMS5003;34710;35.798;139.446;2022-11-20T03:32:13;27;26;
48893;PMS5003;34710;35.798;139.446;2022-11-20T03:34:42;24;22;
48893;PMS5003;34710;35.798;139.446;2022-11-20T03:37:11;37;23;
48893;PMS5003;34710;35.798;139.446;2022-11-20T03:39:40;24;20;
48893;PMS5003;34710;35.798;139.446;2022-11-20T03:42:09;19;17;
48893;PMS5003;34710;35.798;139.446;2022-11-20T03:44:38;25;22;
48893;PMS5003;34710;35.798;139.446;2022-11-20T03:47:07;21;17;
48893;PMS5003;34710;35.798;139.446;2022-11-20T03:49:36;23;20;
48893;PMS5003;34710;35.798;139.446;2022-11-20T03:52:04;32;20;
48893;PMS5003;34710;35.798;139.446;2022-11-20T03:54:33;25;20;
48893;PMS5003;34710;35.798;139.446;2022-11-20T03:57:02;33;20;
48893;PMS5003;34710;35.798;139.446;2022-11-20T03:59:31;24;22;
48893;PMS5003;34710;35.798;139.446;2022-11-20T04:02:00;24;24;
48893;PMS5003;34710;35.798;139.446;2022-11-20T04:04:30;24;19;
48893;PMS5003;34710;35.798;139.446;2022-11-20T04:04:32;24;19;
48893;PMS5003;34710;35.798;139.446;2022-11-20T04:07:02;20;20;
48893;PMS5003;34710;35.798;139.446;2022-11-20T04:09:31;30;22;
48893;PMS5003;34710;35.798;139.446;2022-11-20T04:12:00;23;19;
48893;PMS5003;34710;35.798;139.446;2022-11-20T04:14:29;16;15;
48893;PMS5003;34710;35.798;139.446;2022-11-20T04:16:58;19;16;
48893;PMS5003;34710;35.798;139.446;2022-11-20T04:19:28;15;15;
48893;PMS5003;34710;35.798;139.446;2022-11-20T04:21:57;22;16;
48893;PMS5003;34710;35.798;139.446;2022-11-20T04:24:26;17;16;
48893;PMS5003;34710;35.798;139.446;2022-11-20T04:26:55;25;21;
48893;PMS5003;34710;35.798;139.446;2022-11-20T04:29:24;30;18;
48893;PMS5003;34710;35.798;139.446;2022-11-20T04:31:54;36;24;
48893;PMS5003;34710;35.798;139.446;2022-11-20T04:34:23;33;22;
48893;PMS5003;34710;35.798;139.446;2022-11-20T04:36:52;25;22;
48893;PMS5003;34710;35.798;139.446;2022-11-20T04:39:21;22;21;
48893;PMS5003;34710;35.798;139.446;2022-11-20T04:41:50;27;24;
48893;PMS5003;34710;35.798;139.446;2022-11-20T04:44:19;32;21;
48893;PMS5003;34710;35.798;139.446;2022-11-20T04:46:48;23;23;
48893;PMS5003;34710;35.798;139.446;2022-11-20T04:49:17;29;19;
48893;PMS5003;34710;35.798;139.446;2022-11-20T04:51:47;22;20;
48893;PMS5003;34710;35.798;139.446;2022-11-20T04:54:16;28;20;
48893;PMS5003;34710;35.798;139.446;2022-11-20T04:56:45;30;19;
48893;PMS5003;34710;35.798;139.446;2022-11-20T04:59:15;30;24;
48893;PMS5003;34710;35.798;139.446;2022-11-20T05:01:44;32;28;
48893;PMS5003;34710;35.798;139.446;2022-11-20T05:04:13;26;22;
48893;PMS5003;34710;35.798;139.446;2022-11-20T05:06:42;23;21;
48893;PMS5003;34710;35.798;139.446;2022-11-20T05:09:11;35;19;
48893;PMS5003;34710;35.798;139.446;2022-11-20T05:11:41;22;16;
48893;PMS5003;34710;35.798;139.446;2022-11-20T05:14:09;24;20;
48893;PMS5003;34710;35.798;139.446;2022-11-20T05:16:38;28;20;
48893;PMS5003;34710;35.798;139.446;2022-11-20T05:19:07;26;22;
48893;PMS5003;34710;35.798;139.446;2022-11-20T05:21:36;25;22;
48893;PMS5003;34710;35.798;139.446;2022-11-20T05:24:05;25;22;
48893;PMS5003;34710;35.798;139.446;2022-11-20T05:26:34;28;23;
48893;PMS5003;34710;35.798;139.446;2022-11-20T05:29:03;26;24;
48893;PMS5003;34710;35.798;139.446;2022-11-20T05:31:32;37;21;
48893;PMS5003;34710;35.798;139.446;2022-11-20T05:34:01;29;26;
48893;PMS5003;34710;35.798;139.446;2022-11-20T05:36:30;31;29;
48893;PMS5003;34710;35.798;139.446;2022-11-20T05:38:59;36;24;
48893;PMS5003;34710;35.798;139.446;2022-11-20T05:41:29;24;23;
48893;PMS5003;34710;35.798;139.446;2022-11-20T05:44:00;31;22;
48893;PMS5003;34710;35.798;139.446;2022-11-20T05:46:30;24;23;
48893;PMS5003;34710;35.798;139.446;2022-11-20T05:48:59;27;21;
48893;PMS5003;34710;35.798;139.446;2022-11-20T05:51:28;24;22;
48893;PMS5003;34710;35.798;139.446;2022-11-20T05:53:57;22;21;
48893;PMS5003;34710;35.798;139.446;2022-11-20T05:56:26;27;23;
48893;PMS5003;34710;35.798;139.446;2022-11-20T05:58:56;44;29;
48893;PMS5003;34710;35.798;139.446;2022-11-20T06:01:25;31;26;
48893;PMS5003;34710;35.798;139.446;2022-11-20T06:03:54;43;29;
48893;PMS5003;34710;35.798;139.446;2022-11-20T06:06:23;43;28;
48893;PMS5003;34710;35.798;139.446;2022-11-20T06:08:52;29;27;
48893;PMS5003;34710;35.798;139.446;2022-11-20T06:11:22;34;27;
48893;PMS5003;34710;35.798;139.446;2022-11-20T06:13:51;39;27;
48893;PMS5003;34710;35.798;139.446;2022-11-20T06:16:21;37;26;
48893;PMS5003;34710;35.798;139.446;2022-11-20T06:18:50;30;26;
48893;PMS5003;34710;35.798;139.446;2022-11-20T06:21:20;32;25;
48893;PMS5003;34710;35.798;139.446;2022-11-20T06:23:49;26;26;
48893;PMS5003;34710;35.798;139.446;2022-11-20T06:26:20;25;22;
48893;PMS5003;34710;35.798;139.446;2022-11-20T06:28:50;31;27;
48893;PMS5003;34710;35.798;139.446;2022-11-20T06:31:21;29;25;
48893;PMS5003;34710;35.798;139.446;2022-11-20T06:33:52;33;31;
48893;PMS5003;34710;35.798;139.446;2022-11-20T06:36:23;46;31;
48893;PMS5003;34710;35.798;139.446;2022-11-20T06:38:51;41;32;
48893;PMS5003;34710;35.798;139.446;2022-11-20T06:41:21;37;27;
48893;PMS5003;34710;35.798;139.446;2022-11-20T06:43:51;44;27;
48893;PMS5003;34710;35.798;139.446;2022-11-20T06:46:20;32;29;
48893;PMS5003;34710;35.798;139.446;2022-11-20T06:48:50;41;32;
48893;PMS5003;34710;35.798;139.446;2022-11-20T06:51:19;37;33;
48893;PMS5003;34710;35.798;139.446;2022-11-20T06:53:48;41;30;
48893;PMS5003;34710;35.798;139.446;2022-11-20T06:56:17;33;26;
48893;PMS5003;34710;35.798;139.446;2022-11-20T06:58:46;36;33;
48893;PMS5003;34710;35.798;139.446;2022-11-20T07:01:16;38;30;
48893;PMS5003;34710;35.798;139.446;2022-11-20T07:03:48;48;34;
48893;PMS5003;34710;35.798;139.446;2022-11-20T07:06:17;51;37;
48893;PMS5003;34710;35.798;139.446;2022-11-20T07:08:46;41;35;
48893;PMS5003;34710;35.798;139.446;2022-11-20T07:11:17;55;43;
48893;PMS5003;34710;35.798;139.446;2022-11-20T07:13:47;56;39;
48893;PMS5003;34710;35.798;139.446;2022-11-20T07:16:16;50;37;
48893;PMS5003;34710;35.798;139.446;2022-11-20T07:18:45;50;40;
48893;PMS5003;34710;35.798;139.446;2022-11-20T07:21:14;46;40;
48893;PMS5003;34710;35.798;139.446;2022-11-20T07:23:43;52;40;
48893;PMS5003;34710;35.798;139.446;2022-11-20T07:26:12;51;36;
48893;PMS5003;34710;35.798;139.446;2022-11-20T07:28:44;49;39;
48893;PMS5003;34710;35.798;139.446;2022-11-20T07:31:13;47;41;
48893;PMS5003;34710;35.798;139.446;2022-11-20T07:33:42;53;40;
48893;PMS5003;34710;35.798;139.446;2022-11-20T07:36:11;49;37;
48893;PMS5003;34710;35.798;139.446;2022-11-20T07:38:40;44;39;
48893;PMS5003;34710;35.798;139.446;2022-11-20T07:41:09;54;42;
48893;PMS5003;34710;35.798;139.446;2022-11-20T07:43:38;50;40;
48893;PMS5003;34710;35.798;139.446;2022-11-20T07:46:07;55;42;
48893;PMS5003;34710;35.798;139.446;2022-11-20T07:48:36;46;40;
48893;PMS5003;34710;35.798;139.446;2022-11-20T07:51:05;42;40;
48893;PMS5003;34710;35.798;139.446;2022-11-20T07:53:34;55;41;
48893;PMS5003;34710;35.798;139.446;2022-11-20T07:56:04;43;34;
48893;PMS5003;34710;35.798;139.446;2022-11-20T07:58:34;56;40;
48893;PMS5003;34710;35.798;139.446;2022-11-20T08:01:03;45;34;
48893;PMS5003;34710;35.798;139.446;2022-11-20T08:03:34;37;32;
48893;PMS5003;34710;35.798;139.446;2022-11-20T08:06:04;47;34;
48893;PMS5003;34710;35.798;139.446;2022-11-20T08:08:34;45;33;
48893;PMS5003;34710;35.798;139.446;2022-11-20T08:11:02;42;34;
48893;PMS5003;34710;35.798;139.446;2022-11-20T08:13:31;42;32;
48893;PMS5003;34710;35.798;139.446;2022-11-20T08:16:00;37;33;
48893;PMS5003;34710;35.798;139.446;2022-11-20T08:18:29;42;29;
48893;PMS5003;34710;35.798;139.446;2022-11-20T08:21:01;36;31;
48893;PMS5003;34710;35.798;139.446;2022-11-20T08:23:31;30;28;
48893;PMS5003;34710;35.798;139.446;2022-11-20T08:26:01;44;35;
48893;PMS5003;34710;35.798;139.446;2022-11-20T08:28:30;41;32;
48893;PMS5003;34710;35.798;139.446;2022-11-20T08:30:59;40;32;
48893;PMS5003;34710;35.798;139.446;2022-11-20T08:33:30;34;32;
48893;PMS5003;34710;35.798;139.446;2022-11-20T08:36:00;45;33;
48893;PMS5003;34710;35.798;139.446;2022-11-20T08:38:30;39;33;
48893;PMS5003;34710;35.798;139.446;2022-11-20T08:41:00;47;33;
48893;PMS5003;34710;35.798;139.446;2022-11-20T08:43:30;30;29;
48893;PMS5003;34710;35.798;139.446;2022-11-20T08:46:00;50;37;
48893;PMS5003;34710;35.798;139.446;2022-11-20T08:48:28;38;28;
48893;PMS5003;34710;35.798;139.446;2022-11-20T08:50:58;36;30;
48893;PMS5003;34710;35.798;139.446;2022-11-20T08:53:27;36;32;
48893;PMS5003;34710;35.798;139.446;2022-11-20T08:55:56;29;28;
48893;PMS5003;34710;35.798;139.446;2022-11-20T08:58:26;30;29;
48893;PMS5003;34710;35.798;139.446;2022-11-20T09:00:55;34;29;
48893;PMS5003;34710;35.798;139.446;2022-11-20T09:03:24;29;25;
48893;PMS5003;34710;35.798;139.446;2022-11-20T09:05:56;39;26;
48893;PMS5003;34710;35.798;139.446;2022-11-20T09:08:27;30;29;
48893;PMS5003;34710;35.798;139.446;2022-11-20T09:10:57;38;27;
48893;PMS5003;34710;35.798;139.446;2022-11-20T09:13:27;27;25;
48893;PMS5003;34710;35.798;139.446;2022-11-20T09:15:57;26;22;
48893;PMS5003;34710;35.798;139.446;2022-11-20T09:18:27;40;26;
48893;PMS5003;34710;35.798;139.446;2022-11-20T09:20:57;27;25;
48893;PMS5003;34710;35.798;139.446;2022-11-20T09:23:30;27;25;
48893;PMS5003;34710;35.798;139.446;2022-11-20T09:26:02;21;21;
48893;PMS5003;34710;35.798;139.446;2022-11-20T09:28:32;33;19;
48893;PMS5003;34710;35.798;139.446;2022-11-20T09:31:04;25;19;
48893;PMS5003;34710;35.798;139.446;2022-11-20T09:33:35;36;21;
48893;PMS5003;34710;35.798;139.446;2022-11-20T09:36:04;30;20;
48893;PMS5003;34710;35.798;139.446;2022-11-20T09:38:33;25;20;
48893;PMS5003;34710;35.798;139.446;2022-11-20T09:41:03;23;21;
48893;PMS5003;34710;35.798;139.446;2022-11-20T09:43:57;22;20;
48893;PMS5003;34710;35.798;139.446;2022-11-20T09:46:34;24;21;
48893;PMS5003;34710;35.798;139.446;2022-11-20T09:49:15;23;20;
48893;PMS5003;34710;35.798;139.446;2022-11-20T09:51:53;24;21;
48893;PMS5003;34710;35.798;139.446;2022-11-20T09:54:27;24;19;
48893;PMS5003;34710;35.798;139.446;2022-11-20T09:57:00;27;20;
48893;PMS5003;34710;35.798;139.446;2022-11-20T09:59:34;23;21;
48893;PMS5003;34710;35.798;139.446;2022-11-20T10:02:12;24;20;
48893;PMS5003;34710;35.798;139.446;2022-11-20T10:04:51;25;21;
48893;PMS5003;34710;35.798;139.446;2022-11-20T10:07:24;22;19;
48893;PMS5003;34710;35.798;139.446;2022-11-20T10:09:59;22;21;
48893;PMS5003;34710;35.798;139.446;2022-11-20T10:12:31;19;19;
48893;PMS5003;34710;35.798;139.446;2022-11-20T10:15:12;26;21;
48893;PMS5003;34710;35.798;139.446;2022-11-20T10:17:53;22;20;
48893;PMS5003;34710;35.798;139.446;2022-11-20T10:20:39;20;19;
48893;PMS5003;34710;35.798;139.446;2022-11-20T10:23:18;26;22;
48893;PMS5003;34710;35.798;139.446;2022-11-20T10:26:13;30;21;
48893;PMS5003;34710;35.798;139.446;2022-11-20T10:28:54;28;20;
48893;PMS5003;34710;35.798;139.446;2022-11-20T10:31:34;21;21;
48893;PMS5003;34710;35.798;139.446;2022-11-20T10:34:06;21;20;
48893;PMS5003;34710;35.798;139.446;2022-11-20T10:36:44;23;17;
48893;PMS5003;34710;35.798;139.446;2022-11-20T10:39:22;33;20;
48893;PMS5003;34710;35.798;139.446;2022-11-20T10:41:58;28;19;
48893;PMS5003;34710;35.798;139.446;2022-11-20T10:44:29;22;17;
48893;PMS5003;34710;35.798;139.446;2022-11-20T10:46:58;24;20;
48893;PMS5003;34710;35.798;139.446;2022-11-20T10:49:28;22;17;
48893;PMS5003;34710;35.798;139.446;2022-11-20T10:51:59;18;17;
48893;PMS5003;34710;35.798;139.446;2022-11-20T10:54:38;20;18;
48893;PMS5003;34710;35.798;139.446;2022-11-20T10:57:17;18;18;
48893;PMS5003;34710;35.798;139.446;2022-11-20T11:00:04;17;16;
48893;PMS5003;34710;35.798;139.446;2022-11-20T11:02:39;14;14;
48893;PMS5003;34710;35.798;139.446;2022-11-20T11:05:23;18;18;
48893;PMS5003;34710;35.798;139.446;2022-11-20T11:08:00;21;19;
48893;PMS5003;34710;35.798;139.446;2022-11-20T11:10:32;20;16;
48893;PMS5003;34710;35.798;139.446;2022-11-20T11:13:18;18;17;
48893;PMS5003;34710;35.798;139.446;2022-11-20T11:15:49;23;19;
48893;PMS5003;34710;35.798;139.446;2022-11-20T11:18:27;20;17;
48893;PMS5003;34710;35.798;139.446;2022-11-20T11:20:59;25;20;
48893;PMS5003;34710;35.798;139.446;2022-11-20T11:23:31;21;20;
48893;PMS5003;34710;35.798;139.446;2022-11-20T11:26:02;25;18;
48893;PMS5003;34710;35.798;139.446;2022-11-20T11:28:33;27;22;
48893;PMS5003;34710;35.798;139.446;2022-11-20T11:31:02;24;21;
48893;PMS5003;34710;35.798;139.446;2022-11-20T11:33:32;23;22;
48893;PMS5003;34710;35.798;139.446;2022-11-20T11:36:02;38;23;
48893;PMS5003;34710;35.798;139.446;2022-11-20T11:38:44;36;21;
48893;PMS5003;34710;35.798;139.446;2022-11-20T11:41:19;27;20;
48893;PMS5003;34710;35.798;139.446;2022-11-20T11:43:52;26;23;
48893;PMS5003;34710;35.798;139.446;2022-11-20T11:46:28;24;22;
48893;PMS5003;34710;35.798;139.446;2022-11-20T11:49:00;23;19;
48893;PMS5003;34710;35.798;139.446;2022-11-20T11:51:51;23;20;
48893;PMS5003;34710;35.798;139.446;2022-11-20T11:54:30;23;20;
48893;PMS5003;34710;35.798;139.446;2022-11-20T11:57:12;22;21;
48893;PMS5003;34710;35.798;139.446;2022-11-20T11:59:51;23;20;
48893;PMS5003;34710;35.798;139.446;2022-11-20T12:02:31;32;20;
48893;PMS5003;34710;35.798;139.446;2022-11-20T12:05:05;24;20;
48893;PMS5003;34710;35.798;139.446;2022-11-20T12:07:45;30;19;
48893;PMS5003;34710;35.798;139.446;2022-11-20T12:10:21;20;18;
48893;PMS5003;34710;35.798;139.446;2022-11-20T12:12:58;23;20;
48893;PMS5003;34710;35.798;139.446;2022-11-20T12:15:36;25;19;
48893;PMS5003;34710;35.798;139.446;2022-11-20T12:18:14;21;20;
48893;PMS5003;34710;35.798;139.446;2022-11-20T12:20:48;19;18;
48893;PMS5003;34710;35.798;139.446;2022-11-20T12:23:31;19;19;
48893;PMS5003;34710;35.798;139.446;2022-11-20T12:26:10;25;17;
48893;PMS5003;34710;35.798;139.446;2022-11-20T12:28:59;22;18;
48893;PMS5003;34710;35.798;139.446;2022-11-20T12:31:45;35;24;
48893;PMS5003;34710;35.798;139.446;2022-11-20T12:34:27;25;21;
48893;PMS5003;34710;35.798;139.446;2022-11-20T12:37:13;25;24;
48893;PMS5003;34710;35.798;139.446;2022-11-20T12:39:49;28;23;
48893;PMS5003;34710;35.798;139.446;2022-11-20T12:42:27;23;20;
48893;PMS5003;34710;35.798;139.446;2022-11-20T12:45:17;23;22;
48893;PMS5003;34710;35.798;139.446;2022-11-20T12:48:01;25;20;
48893;PMS5003;34710;35.798;139.446;2022-11-20T12:50:47;26;20;
48893;PMS5003;34710;35.798;139.446;2022-11-20T12:53:29;26;23;
48893;PMS5003;34710;35.798;139.446;2022-11-20T12:56:09;28;22;
48893;PMS5003;34710;35.798;139.446;2022-11-20T12:58:51;23;21;
48893;PMS5003;34710;35.798;139.446;2022-11-20T13:01:34;31;25;
48893;PMS5003;34710;35.798;139.446;2022-11-20T13:04:34;26;24;
48893;PMS5003;34710;35.798;139.446;2022-11-20T13:07:16;25;23;
48893;PMS5003;34710;35.798;139.446;2022-11-20T13:09:47;26;22;
48893;PMS5003;34710;35.798;139.446;2022-11-20T13:12:19;29;27;
48893;PMS5003;34710;35.798;139.446;2022-11-20T13:14:57;28;24;
48893;PMS5003;34710;35.798;139.446;2022-11-20T13:17:36;25;23;
48893;PMS5003;34710;35.798;139.446;2022-11-20T13:20:13;21;18;
48893;PMS5003;34710;35.798;139.446;2022-11-20T13:22:45;25;20;
48893;PMS5003;34710;35.798;139.446;2022-11-20T13:25:31;22;21;
48893;PMS5003;34710;35.798;139.446;2022-11-20T13:28:03;31;19;
48893;PMS5003;34710;35.798;139.446;2022-11-20T13:30:52;22;21;
48893;PMS5003;34710;35.798;139.446;2022-11-20T13:33:23;19;19;
48893;PMS5003;34710;35.798;139.446;2022-11-20T13:35:58;22;18;
48893;PMS5003;34710;35.798;139.446;2022-11-20T13:38:39;20;20;
48893;PMS5003;34710;35.798;139.446;2022-11-20T13:41:11;21;19;
48893;PMS5003;34710;35.798;139.446;2022-11-20T13:43:51;18;17;
48893;PMS5003;34710;35.798;139.446;2022-11-20T13:46:22;21;18;
48893;PMS5003;34710;35.798;139.446;2022-11-20T13:49:05;24;20;
48893;PMS5003;34710;35.798;139.446;2022-11-20T13:51:40;32;20;
48893;PMS5003;34710;35.798;139.446;2022-11-20T13:54:21;27;22;
48893;PMS5003;34710;35.798;139.446;2022-11-20T13:57:13;21;20;
48893;PMS5003;34710;35.798;139.446;2022-11-20T14:00:02;25;18;
48893;PMS5003;34710;35.798;139.446;2022-11-20T14:02:38;24;20;
48893;PMS5003;34710;35.798;139.446;2022-11-20T14:05:13;21;20;
48893;PMS5003;34710;35.798;139.446;2022-11-20T14:07:49;28;20;
48893;PMS5003;34710;35.798;139.446;2022-11-20T14:10:21;22;22;
48893;PMS5003;34710;35.798;139.446;2022-11-20T14:12:52;26;19;
48893;PMS5003;34710;35.798;139.446;2022-11-20T14:15:25;18;18;
48893;PMS5003;34710;35.798;139.446;2022-11-20T14:17:56;22;20;
48893;PMS5003;34710;35.798;139.446;2022-11-20T14:20:26;27;17;
48893;PMS5003;34710;35.798;139.446;2022-11-20T14:22:57;20;20;
48893;PMS5003;34710;35.798;139.446;2022-11-20T14:25:26;23;20;
48893;PMS5003;34710;35.798;139.446;2022-11-20T14:27:56;25;21;
48893;PMS5003;34710;35.798;139.446;2022-11-20T14:30:27;20;18;
48893;PMS5003;34710;35.798;139.446;2022-11-20T14:33:05;28;20;
48893;PMS5003;34710;35.798;139.446;2022-11-20T14:35:40;33;20;
48893;PMS5003;34710;35.798;139.446;2022-11-20T14:38:14;28;17;
48893;PMS5003;34710;35.798;139.446;2022-11-20T14:40:45;25;18;
48893;PMS5003;34710;35.798;139.446;2022-11-20T14:43:18;20;18;
48893;PMS5003;34710;35.798;139.446;2022-11-20T14:45:54;19;19;
48893;PMS5003;34710;35.798;139.446;2022-11-20T14:48:28;19;18;
48893;PMS5003;34710;35.798;139.446;2022-11-20T14:50:58;17;16;
48893;PMS5003;34710;35.798;139.446;2022-11-20T14:53:28;20;17;
48893;PMS5003;34710;35.798;139.446;2022-11-20T14:55:58;25;17;
48893;PMS5003;34710;35.798;139.446;2022-11-20T14:58:29;23;20;
48893;PMS5003;34710;35.798;139.446;2022-11-20T15:01:00;21;19;
48893;PMS5003;34710;35.798;139.446;2022-11-20T15:03:33;27;17;
48893;PMS5003;34710;35.798;139.446;2022-11-20T15:06:03;22;21;
48893;PMS5003;34710;35.798;139.446;2022-11-20T15:08:33;27;22;
48893;PMS5003;34710;35.798;139.446;2022-11-20T15:11:02;18;17;
48893;PMS5003;34710;35.798;139.446;2022-11-20T15:13:43;22;18;
48893;PMS5003;34710;35.798;139.446;2022-11-20T15:16:13;21;19;
48893;PMS5003;34710;35.798;139.446;2022-11-20T15:18:46;24;20;
48893;PMS5003;34710;35.798;139.446;2022-11-20T15:21:16;30;18;
48893;PMS5003;34710;35.798;139.446;2022-11-20T15:23:47;21;19;
48893;PMS5003;34710;35.798;139.446;2022-11-20T15:26:18;16;16;
48893;PMS5003;34710;35.798;139.446;2022-11-20T15:28:51;20;18;
48893;PMS5003;34710;35.798;139.446;2022-11-20T15:31:22;18;15;
48893;PMS5003;34710;35.798;139.446;2022-11-20T15:33:51;18;16;
48893;PMS5003;34710;35.798;139.446;2022-11-20T15:36:20;21;14;
48893;PMS5003;34710;35.798;139.446;2022-11-20T15:38:50;17;16;
48893;PMS5003;34710;35.798;139.446;2022-11-20T15:41:19;15;15;
48893;PMS5003;34710;35.798;139.446;2022-11-20T15:43:48;15;13;
48893;PMS5003;34710;35.798;139.446;2022-11-20T15:46:19;17;14;
48893;PMS5003;34710;35.798;139.446;2022-11-20T15:48:54;20;18;
48893;PMS5003;34710;35.798;139.446;2022-11-20T15:51:26;17;14;
48893;PMS5003;34710;35.798;139.446;2022-11-20T15:53:58;13;12;
48893;PMS5003;34710;35.798;139.446;2022-11-20T15:56:28;22;15;
48893;PMS5003;34710;35.798;139.446;2022-11-20T15:58:57;13;13;
48893;PMS5003;34710;35.798;139.446;2022-11-20T16:01:26;12;12;
48893;PMS5003;34710;35.798;139.446;2022-11-20T16:03:55;17;14;
48893;PMS5003;34710;35.798;139.446;2022-11-20T16:06:24;13;13;
48893;PMS5003;34710;35.798;139.446;2022-11-20T16:08:54;11;11;
48893;PMS5003;34710;35.798;139.446;2022-11-20T16:11:23;15;13;
48893;PMS5003;34710;35.798;139.446;2022-11-20T16:13:52;12;12;
48893;PMS5003;34710;35.798;139.446;2022-11-20T16:16:22;13;13;